createdAt,value
2022-10-29T00:02:16.238Z,15.50
2022-10-29T00:04:43.086Z,15.60
2022-10-29T00:07:09.986Z,15.70
2022-10-29T00:09:36.963Z,15.60
2022-10-29T00:12:04.020Z,15.50
2022-10-29T00:14:30.918Z,15.40
2022-10-29T00:16:57.826Z,15.40
2022-10-29T00:19:24.917Z,15.60
2022-10-29T00:21:51.913Z,15.70
2022-10-29T00:24:18.812Z,15.70
2022-10-29T00:26:45.820Z,15.80
2022-10-29T00:29:12.739Z,15.80
2022-10-29T00:31:39.739Z,15.80
2022-10-29T00:34:06.671Z,15.70
2022-10-29T00:36:33.692Z,15.80
2022-10-29T00:39:00.575Z,15.70
2022-10-29T00:41:29.966Z,15.80
2022-10-29T00:44:14.907Z,15.70
2022-10-29T00:46:49.492Z,15.70
2022-10-29T00:49:17.570Z,15.70
2022-10-29T00:51:46.543Z,15.80
2022-10-29T00:54:16.506Z,15.80
2022-10-29T00:56:53.943Z,15.80
2022-10-29T00:59:21.078Z,15.90
2022-10-29T01:01:49.539Z,15.80
2022-10-29T01:04:18.447Z,15.70
2022-10-29T01:06:47.210Z,15.80
2022-10-29T01:09:14.471Z,15.70
2022-10-29T01:11:52.218Z,15.70
2022-10-29T01:14:35.158Z,15.70
2022-10-29T01:17:19.911Z,15.70
2022-10-29T01:19:58.774Z,15.70
2022-10-29T01:22:51.959Z,15.70
2022-10-29T01:25:27.604Z,15.70
2022-10-29T01:28:13.038Z,15.70
2022-10-29T01:31:13.810Z,15.60
2022-10-29T01:33:49.359Z,15.70
2022-10-29T01:36:19.463Z,15.70
2022-10-29T01:39:28.789Z,15.70
2022-10-29T01:42:13.101Z,15.80
2022-10-29T01:44:48.189Z,15.80
2022-10-29T01:47:20.509Z,15.80
2022-10-29T01:49:59.783Z,15.80
2022-10-29T01:52:29.353Z,15.80
2022-10-29T01:54:56.296Z,15.70
2022-10-29T01:57:34.836Z,15.60
2022-10-29T02:00:12.228Z,15.60
2022-10-29T02:03:01.518Z,15.60
2022-10-29T02:05:37.131Z,15.50
2022-10-29T02:08:20.239Z,15.40
2022-10-29T02:11:12.804Z,15.40
2022-10-29T02:13:50.570Z,15.40
2022-10-29T02:16:18.051Z,15.40
2022-10-29T02:18:47.478Z,15.40
2022-10-29T02:21:18.873Z,15.30
2022-10-29T02:23:46.560Z,15.20
2022-10-29T02:26:13.796Z,15.20
2022-10-29T02:28:40.677Z,15.10
2022-10-29T02:31:07.622Z,15.00
2022-10-29T02:33:34.590Z,15.00
2022-10-29T02:36:01.564Z,14.90
2022-10-29T02:38:28.481Z,14.80
2022-10-29T02:40:55.412Z,14.70
2022-10-29T02:43:22.329Z,14.60
2022-10-29T02:45:50.832Z,14.60
2022-10-29T02:48:17.746Z,14.60
2022-10-29T02:50:44.571Z,14.60
2022-10-29T02:53:11.459Z,14.60
2022-10-29T02:55:38.353Z,14.60
2022-10-29T02:58:05.233Z,14.60
2022-10-29T03:00:32.080Z,14.60
2022-10-29T03:02:59.409Z,14.60
2022-10-29T03:05:26.785Z,14.60
2022-10-29T03:07:53.652Z,14.60
2022-10-29T03:10:21.703Z,14.70
2022-10-29T03:12:48.648Z,14.70
2022-10-29T03:15:15.615Z,14.70
2022-10-29T03:17:43.904Z,14.70
2022-10-29T03:20:10.983Z,14.70
2022-10-29T03:22:38.245Z,14.70
2022-10-29T03:25:09.643Z,14.60
2022-10-29T03:27:49.254Z,14.50
2022-10-29T03:30:17.820Z,14.50
2022-10-29T03:32:46.229Z,14.40
2022-10-29T03:35:15.504Z,14.50
2022-10-29T03:37:42.492Z,14.50
2022-10-29T03:40:09.861Z,14.50
2022-10-29T03:42:38.504Z,14.50
2022-10-29T03:45:05.696Z,14.50
2022-10-29T03:47:33.284Z,14.50
2022-10-29T03:50:00.194Z,14.50
2022-10-29T03:52:27.329Z,14.50
2022-10-29T03:54:54.202Z,14.50
2022-10-29T03:57:21.265Z,14.40
2022-10-29T03:59:51.576Z,14.50
2022-10-29T04:02:20.096Z,14.50
2022-10-29T04:04:47.082Z,14.40
2022-10-29T04:07:14.538Z,14.40
2022-10-29T04:09:41.585Z,14.30
2022-10-29T04:12:08.955Z,14.40
2022-10-29T04:14:37.287Z,14.40
2022-10-29T04:17:06.980Z,14.30
2022-10-29T04:19:33.853Z,14.30
2022-10-29T04:28:41.879Z,14.30
2022-10-29T04:30:22.433Z,14.30
2022-10-29T04:32:49.383Z,14.40
2022-10-29T04:35:16.416Z,14.40
2022-10-29T04:37:43.369Z,14.40
2022-10-29T04:40:10.655Z,14.40
2022-10-29T04:42:38.727Z,14.40
2022-10-29T04:45:07.483Z,14.40
2022-10-29T04:47:34.473Z,14.30
2022-10-29T04:50:01.384Z,14.30
2022-10-29T04:52:28.287Z,14.30
2022-10-29T04:54:55.132Z,14.20
2022-10-29T04:57:22.006Z,14.20
2022-10-29T04:59:48.848Z,14.20
2022-10-29T05:02:15.741Z,14.20
2022-10-29T05:04:42.622Z,14.30
2022-10-29T05:07:09.504Z,14.30
2022-10-29T05:09:36.380Z,14.30
2022-10-29T05:12:03.264Z,14.30
2022-10-29T05:14:30.144Z,14.20
2022-10-29T05:16:57.040Z,14.20
2022-10-29T05:19:24.104Z,14.10
2022-10-29T05:21:50.981Z,14.20
2022-10-29T05:24:18.106Z,14.20
2022-10-29T05:26:45.015Z,14.30
2022-10-29T05:29:11.873Z,14.30
2022-10-29T05:31:38.752Z,14.30
2022-10-29T05:34:05.667Z,14.30
2022-10-29T05:36:32.523Z,14.40
2022-10-29T05:39:02.160Z,14.50
2022-10-29T05:41:28.998Z,14.50
2022-10-29T05:43:55.890Z,14.50
2022-10-29T05:46:22.732Z,14.50
2022-10-29T05:48:49.606Z,14.50
2022-10-29T05:51:16.499Z,14.50
2022-10-29T05:53:43.436Z,14.50
2022-10-29T05:56:10.678Z,14.50
2022-10-29T05:58:37.591Z,14.50
2022-10-29T06:01:11.704Z,14.50
2022-10-29T06:03:39.123Z,14.50
2022-10-29T06:06:06.234Z,14.50
2022-10-29T06:08:33.191Z,14.50
2022-10-29T06:11:04.055Z,14.40
2022-10-29T06:13:31.247Z,14.40
2022-10-29T06:15:59.890Z,14.30
2022-10-29T06:18:27.857Z,14.20
2022-10-29T06:20:58.415Z,14.10
2022-10-29T06:23:25.555Z,14.00
2022-10-29T06:25:53.051Z,14.00
2022-10-29T06:28:20.322Z,13.90
2022-10-29T06:30:49.475Z,13.80
2022-10-29T06:33:17.933Z,13.80
2022-10-29T06:35:45.362Z,13.80
2022-10-29T06:38:12.777Z,13.80
2022-10-29T06:40:40.783Z,13.70
2022-10-29T06:43:11.006Z,13.60
2022-10-29T06:45:38.107Z,13.50
2022-10-29T06:48:05.577Z,13.50
2022-10-29T06:50:32.615Z,13.40
2022-10-29T06:53:02.030Z,13.40
2022-10-29T06:55:29.717Z,13.40
2022-10-29T06:57:58.723Z,13.40
2022-10-29T07:00:25.755Z,13.40
2022-10-29T07:02:52.947Z,13.40
2022-10-29T07:05:20.503Z,13.40
2022-10-29T07:07:47.751Z,13.40
2022-10-29T07:10:14.730Z,13.30
2022-10-29T07:12:45.390Z,13.40
2022-10-29T07:15:13.083Z,13.40
2022-10-29T07:17:40.313Z,13.40
2022-10-29T07:20:08.168Z,13.40
2022-10-29T07:22:35.507Z,13.50
2022-10-29T07:25:02.362Z,13.60
2022-10-29T07:27:29.350Z,13.70
2022-10-29T07:29:56.288Z,13.90
2022-10-29T07:32:24.320Z,14.00
2022-10-29T07:34:51.253Z,14.20
2022-10-29T07:37:18.232Z,14.30
2022-10-29T07:39:45.114Z,14.40
2022-10-29T07:42:12.156Z,14.40
2022-10-29T07:44:39.003Z,14.40
2022-10-29T07:47:05.930Z,14.40
2022-10-29T07:49:32.863Z,14.30
2022-10-29T07:51:59.808Z,14.40
2022-10-29T07:54:26.688Z,14.40
2022-10-29T07:56:53.824Z,14.50
2022-10-29T07:59:20.780Z,14.60
2022-10-29T08:01:47.909Z,14.70
2022-10-29T08:04:14.808Z,14.80
2022-10-29T08:06:41.943Z,14.90
2022-10-29T08:09:10.236Z,15.00
2022-10-29T08:11:37.179Z,15.00
2022-10-29T08:14:04.234Z,15.10
2022-10-29T08:16:31.104Z,15.20
2022-10-29T08:18:57.965Z,15.20
2022-10-29T08:21:24.891Z,15.30
2022-10-29T08:23:51.803Z,15.40
2022-10-29T08:26:20.457Z,15.40
2022-10-29T08:28:47.430Z,15.50
2022-10-29T08:31:14.702Z,15.60
2022-10-29T08:33:41.630Z,15.60
2022-10-29T08:36:08.768Z,15.70
2022-10-29T08:38:35.670Z,15.90
2022-10-29T08:41:31.700Z,16.00
2022-10-29T08:46:41.510Z,16.30
2022-10-29T08:49:17.449Z,16.60
2022-10-29T08:51:50.887Z,16.80
2022-10-29T08:54:30.699Z,17.00
2022-10-29T08:57:02.530Z,17.20
2022-10-29T08:59:34.958Z,17.30
2022-10-29T09:02:02.062Z,17.50
2022-10-29T09:04:34.275Z,17.70
2022-10-29T09:07:10.241Z,17.80
2022-10-29T09:09:51.238Z,17.80
2022-10-29T09:13:00.208Z,17.90
2022-10-29T09:16:05.002Z,17.90
2022-10-29T09:18:43.256Z,17.90
2022-10-29T09:21:39.772Z,17.90
2022-10-29T09:24:22.096Z,17.90
2022-10-29T09:27:18.131Z,17.80
2022-10-29T09:29:47.943Z,17.80
2022-10-29T09:33:00.743Z,17.80
2022-10-29T09:35:40.711Z,18.10
2022-10-29T09:38:20.657Z,18.30
2022-10-29T09:40:47.739Z,18.50
2022-10-29T09:43:53.215Z,18.70
2022-10-29T09:46:55.767Z,18.90
2022-10-29T09:49:33.114Z,19.20
2022-10-29T09:52:15.183Z,19.50
2022-10-29T09:54:42.300Z,19.70
2022-10-29T09:57:20.589Z,19.80
2022-10-29T09:59:56.746Z,19.80
2022-10-29T10:02:29.594Z,19.70
2022-10-29T10:05:03.698Z,19.50
2022-10-29T10:07:30.591Z,19.50
2022-10-29T10:09:59.981Z,19.60
2022-10-29T10:12:37.273Z,19.60
2022-10-29T10:15:28.278Z,19.70
2022-10-29T10:18:00.115Z,19.80
2022-10-29T10:20:45.757Z,20.20
2022-10-29T10:23:20.112Z,20.60
2022-10-29T10:25:47.327Z,20.60
2022-10-29T10:28:21.482Z,20.50
2022-10-29T10:31:09.704Z,20.60
2022-10-29T10:33:44.293Z,20.90
2022-10-29T10:36:11.289Z,21.10
2022-10-29T10:38:45.648Z,21.40
2022-10-29T10:41:14.719Z,21.50
2022-10-29T10:43:45.016Z,21.60
2022-10-29T10:46:23.635Z,21.70
2022-10-29T10:49:05.265Z,22.00
2022-10-29T10:51:38.210Z,22.30
2022-10-29T10:54:33.726Z,22.50
2022-10-29T10:57:11.465Z,22.00
2022-10-29T10:59:59.422Z,22.00
2022-10-29T11:02:32.476Z,21.80
2022-10-29T11:05:17.257Z,21.80
2022-10-29T11:07:53.694Z,22.00
2022-10-29T11:10:27.611Z,22.30
2022-10-29T11:12:58.098Z,22.50
2022-10-29T11:15:33.389Z,22.40
2022-10-29T11:21:20.054Z,22.50
2022-10-29T11:23:59.164Z,22.40
2022-10-29T11:26:34.796Z,22.60
2022-10-29T11:29:22.904Z,22.80
2022-10-29T11:32:04.950Z,23.40
2022-10-29T11:34:38.047Z,23.90
2022-10-29T11:37:33.868Z,23.70
2022-10-29T11:40:10.975Z,23.40
2022-10-29T11:42:39.340Z,23.60
2022-10-29T11:45:10.908Z,23.60
2022-10-29T11:47:37.748Z,23.50
2022-10-29T11:50:39.519Z,23.40
2022-10-29T11:53:32.729Z,23.40
2022-10-29T11:56:22.810Z,23.10
2022-10-29T11:59:01.473Z,22.80
2022-10-29T12:02:12.737Z,22.70
2022-10-29T12:04:42.569Z,23.10
2022-10-29T12:07:12.520Z,23.70
2022-10-29T12:10:00.159Z,24.00
2022-10-29T12:12:39.027Z,24.00
2022-10-29T12:15:29.537Z,24.00
2022-10-29T12:18:23.781Z,24.20
2022-10-29T12:21:05.998Z,24.40
2022-10-29T12:23:41.673Z,24.60
2022-10-29T12:26:23.304Z,24.10
2022-10-29T12:29:18.405Z,24.10
2022-10-29T12:31:59.747Z,24.20
2022-10-29T12:34:49.705Z,24.10
2022-10-29T12:37:42.543Z,24.10
2022-10-29T12:40:30.097Z,23.60
2022-10-29T12:43:02.727Z,23.20
2022-10-29T12:46:21.283Z,22.80
2022-10-29T12:49:09.766Z,22.30
2022-10-29T12:51:49.303Z,22.10
2022-10-29T12:54:39.759Z,21.80
2022-10-29T12:57:35.843Z,21.80
2022-10-29T13:00:24.439Z,21.80
2022-10-29T13:02:55.125Z,21.80
2022-10-29T13:05:39.794Z,21.60
2022-10-29T13:08:06.641Z,21.70
2022-10-29T13:10:33.471Z,21.70
2022-10-29T13:13:15.616Z,21.70
2022-10-29T13:15:58.557Z,21.70
2022-10-29T13:18:42.039Z,21.90
2022-10-29T13:21:09.362Z,22.40
2022-10-29T13:23:37.861Z,23.10
2022-10-29T13:26:10.807Z,23.70
2022-10-29T13:28:37.659Z,23.90
2022-10-29T13:31:04.487Z,23.90
2022-10-29T13:33:31.378Z,23.70
2022-10-29T13:36:02.162Z,23.80
2022-10-29T13:39:04.437Z,23.80
2022-10-29T13:41:42.065Z,23.10
2022-10-29T13:44:13.509Z,22.80
2022-10-29T13:46:46.083Z,22.30
2022-10-29T13:49:18.407Z,22.10
2022-10-29T13:51:55.885Z,21.80
2022-10-29T13:54:29.356Z,21.60
2022-10-29T13:57:12.641Z,21.50
2022-10-29T13:59:58.284Z,21.50
2022-10-29T14:02:43.231Z,21.40
2022-10-29T14:05:30.246Z,21.50
2022-10-29T14:08:30.668Z,21.70
2022-10-29T14:10:59.535Z,22.00
2022-10-29T14:13:30.197Z,22.20
2022-10-29T14:16:06.045Z,22.40
2022-10-29T14:18:32.958Z,22.70
2022-10-29T14:21:01.496Z,22.80
2022-10-29T14:23:29.933Z,22.80
2022-10-29T14:26:00.157Z,22.80
2022-10-29T14:28:31.823Z,22.90
2022-10-29T14:31:00.707Z,22.90
2022-10-29T14:33:33.073Z,22.90
2022-10-29T14:36:12.574Z,22.60
2022-10-29T14:38:44.573Z,22.00
2022-10-29T14:41:12.264Z,21.80
2022-10-29T14:43:39.707Z,21.60
2022-10-29T14:46:20.777Z,21.80
2022-10-29T14:48:54.760Z,22.10
2022-10-29T14:51:22.696Z,22.20
2022-10-29T14:53:59.128Z,22.30
2022-10-29T14:56:33.024Z,22.10
2022-10-29T14:59:03.465Z,21.80
2022-10-29T15:01:31.041Z,21.40
2022-10-29T15:04:00.607Z,21.10
2022-10-29T15:06:29.929Z,20.80
2022-10-29T15:09:03.794Z,20.50
2022-10-29T15:12:00.444Z,20.30
2022-10-29T15:14:45.902Z,20.20
2022-10-29T15:17:20.697Z,20.00
2022-10-29T15:19:51.471Z,19.80
2022-10-29T15:22:32.829Z,19.70
2022-10-29T15:25:05.830Z,19.60
2022-10-29T15:27:35.526Z,19.50
2022-10-29T15:30:02.567Z,19.40
2022-10-29T15:32:31.514Z,19.30
2022-10-29T15:34:59.725Z,19.30
2022-10-29T15:37:42.147Z,19.30
2022-10-29T15:40:13.913Z,19.20
2022-10-29T15:42:41.408Z,19.10
2022-10-29T15:45:08.440Z,19.10
2022-10-29T15:47:43.929Z,19.00
2022-10-29T15:50:13.553Z,19.00
2022-10-29T15:53:05.991Z,18.90
2022-10-29T15:55:35.592Z,18.90
2022-10-29T15:58:15.076Z,18.90
2022-10-29T16:00:42.491Z,18.80
2022-10-29T16:03:22.146Z,18.80
2022-10-29T16:05:56.331Z,18.90
2022-10-29T16:08:30.858Z,19.00
2022-10-29T16:11:00.252Z,19.00
2022-10-29T16:13:29.908Z,19.00
2022-10-29T16:15:56.835Z,19.00
2022-10-29T16:18:24.113Z,18.90
2022-10-29T16:20:56.442Z,19.00
2022-10-29T16:23:23.329Z,18.90
2022-10-29T16:25:50.328Z,18.90
2022-10-29T16:28:17.389Z,18.90
2022-10-29T16:30:49.148Z,18.80
2022-10-29T16:33:16.796Z,18.60
2022-10-29T16:35:43.624Z,18.50
2022-10-29T16:38:11.239Z,18.40
2022-10-29T16:40:38.608Z,18.40
2022-10-29T16:43:05.996Z,18.40
2022-10-29T16:45:32.902Z,18.40
2022-10-29T16:48:00.233Z,18.30
2022-10-29T16:50:30.307Z,18.20
2022-10-29T16:52:58.542Z,18.20
2022-10-29T16:55:26.879Z,18.30
2022-10-29T16:57:53.988Z,18.20
2022-10-29T17:00:21.839Z,18.10
2022-10-29T17:02:49.102Z,18.00
2022-10-29T17:05:16.497Z,17.90
2022-10-29T17:07:43.478Z,17.90
2022-10-29T17:10:10.768Z,18.10
2022-10-29T17:12:37.815Z,18.20
2022-10-29T17:15:05.236Z,18.20
2022-10-29T17:17:32.429Z,18.30
2022-10-29T17:19:59.340Z,18.30
2022-10-29T17:22:26.189Z,18.30
2022-10-29T17:24:53.139Z,18.30
2022-10-29T17:27:20.002Z,18.30
2022-10-29T17:29:46.879Z,18.20
2022-10-29T17:32:14.510Z,18.20
2022-10-29T17:34:41.957Z,18.10
2022-10-29T17:37:09.869Z,18.10
2022-10-29T17:39:37.593Z,18.00
2022-10-29T17:42:05.338Z,17.90
2022-10-29T17:44:34.237Z,17.80
2022-10-29T17:47:01.971Z,17.80
2022-10-29T17:49:29.483Z,17.70
2022-10-29T17:51:57.266Z,17.60
2022-10-29T17:54:24.662Z,17.60
2022-10-29T17:56:52.254Z,17.60
2022-10-29T17:59:19.195Z,17.50
2022-10-29T18:01:46.377Z,17.50
2022-10-29T18:04:13.471Z,17.40
2022-10-29T18:06:40.411Z,17.60
2022-10-29T18:09:07.376Z,17.70
2022-10-29T18:11:34.488Z,17.70
2022-10-29T18:14:01.499Z,17.70
2022-10-29T18:16:29.896Z,17.90
2022-10-29T18:19:03.226Z,17.90
2022-10-29T18:21:30.858Z,18.00
2022-10-29T18:23:58.285Z,18.00
2022-10-29T18:26:30.716Z,17.90
2022-10-29T18:28:59.895Z,17.90
2022-10-29T18:31:30.197Z,17.90
2022-10-29T18:33:59.147Z,18.00
2022-10-29T18:36:26.322Z,18.10
2022-10-29T18:38:55.511Z,18.20
2022-10-29T18:41:23.393Z,18.20
2022-10-29T18:43:50.921Z,18.30
2022-10-29T18:46:19.170Z,18.30
2022-10-29T18:48:47.859Z,18.40
2022-10-29T18:51:24.432Z,18.30
2022-10-29T18:53:52.989Z,18.20
2022-10-29T18:56:22.077Z,18.10
2022-10-29T18:58:49.502Z,17.90
2022-10-29T19:01:23.614Z,17.70
2022-10-29T19:03:52.405Z,17.50
2022-10-29T19:06:21.172Z,17.30
2022-10-29T19:08:48.259Z,16.90
2022-10-29T19:11:18.950Z,16.70
2022-10-29T19:13:55.573Z,16.40
2022-10-29T19:16:23.120Z,16.10
2022-10-29T19:18:55.914Z,16.00
2022-10-29T19:21:24.873Z,15.80
2022-10-29T19:23:56.984Z,15.60
2022-10-29T19:26:25.272Z,15.50
2022-10-29T19:28:52.340Z,15.40
2022-10-29T19:31:26.516Z,15.30
2022-10-29T19:33:58.299Z,15.30
2022-10-29T19:36:26.917Z,15.30
2022-10-29T19:38:55.418Z,15.30
2022-10-29T19:41:22.735Z,15.30
2022-10-29T19:43:50.466Z,15.30
2022-10-29T19:46:22.892Z,15.30
2022-10-29T19:48:51.524Z,15.30
2022-10-29T19:51:18.776Z,15.40
2022-10-29T19:53:46.686Z,15.40
2022-10-29T19:56:15.553Z,15.40
2022-10-29T19:58:42.976Z,15.50
2022-10-29T20:01:16.225Z,15.50
2022-10-29T20:03:45.021Z,15.40
2022-10-29T20:06:12.379Z,15.30
2022-10-29T20:08:40.726Z,15.20
2022-10-29T20:11:07.898Z,15.20
2022-10-29T20:13:35.373Z,15.20
2022-10-29T20:16:09.091Z,15.20
2022-10-29T20:18:38.264Z,15.20
2022-10-29T20:23:38.037Z,15.30
2022-10-29T20:26:05.742Z,15.30
2022-10-29T20:28:33.048Z,15.30
2022-10-29T20:31:18.390Z,15.30
2022-10-29T20:33:53.846Z,15.30
2022-10-29T20:36:21.934Z,15.40
2022-10-29T20:38:52.639Z,15.40
2022-10-29T20:41:20.619Z,15.50
2022-10-29T20:43:55.454Z,15.50
2022-10-29T20:46:23.898Z,15.50
2022-10-29T20:48:51.249Z,15.60
2022-10-29T20:51:18.210Z,15.60
2022-10-29T20:53:45.484Z,15.70
2022-10-29T20:56:15.995Z,15.70
2022-10-29T20:58:43.654Z,15.70
2022-10-29T21:01:12.837Z,15.80
2022-10-29T21:03:40.240Z,15.80
2022-10-29T21:06:15.732Z,15.70
2022-10-29T21:08:44.674Z,15.70
2022-10-29T21:11:14.050Z,15.60
2022-10-29T21:13:41.469Z,15.60
2022-10-29T21:16:19.106Z,15.50
2022-10-29T21:18:48.279Z,15.50
2022-10-29T21:21:16.364Z,15.50
2022-10-29T21:23:43.514Z,15.40
2022-10-29T21:26:14.893Z,15.50
2022-10-29T21:28:42.393Z,15.50
2022-10-29T21:31:09.703Z,15.50
2022-10-29T21:33:36.999Z,15.60
2022-10-29T21:36:04.619Z,15.60
2022-10-29T21:38:33.390Z,15.60
2022-10-29T21:41:02.138Z,15.50
2022-10-29T21:43:29.372Z,15.40
2022-10-29T21:45:57.377Z,15.30
2022-10-29T21:48:28.406Z,15.20
2022-10-29T21:51:18.201Z,15.10
2022-10-29T21:53:45.117Z,14.90
2022-10-29T21:56:14.013Z,14.80
2022-10-29T21:58:41.317Z,14.60
2022-10-29T22:01:09.458Z,14.60
2022-10-29T22:03:38.694Z,14.50
2022-10-29T22:06:16.674Z,14.50
2022-10-29T22:08:44.379Z,14.50
2022-10-29T22:11:11.945Z,14.60
2022-10-29T22:13:39.211Z,14.60
2022-10-29T22:16:08.083Z,14.60
2022-10-29T22:18:35.643Z,14.50
2022-10-29T22:21:17.697Z,14.70
2022-10-29T22:23:50.406Z,14.70
2022-10-29T22:26:21.281Z,14.60
2022-10-29T22:28:49.993Z,14.60
2022-10-29T22:31:18.921Z,14.70
2022-10-29T22:33:47.199Z,14.70
2022-10-29T22:36:19.985Z,14.80
2022-10-29T22:38:51.752Z,14.70
2022-10-29T22:41:18.812Z,14.60
2022-10-29T22:43:47.007Z,14.50
2022-10-29T22:46:15.898Z,14.50
2022-10-29T22:48:45.561Z,14.50
2022-10-29T22:51:16.053Z,14.60
2022-10-29T22:53:43.362Z,14.60
2022-10-29T22:56:17.751Z,14.60
2022-10-29T22:58:45.177Z,14.50
2022-10-29T23:01:15.642Z,14.50
2022-10-29T23:03:43.549Z,14.50
2022-10-29T23:06:12.891Z,14.70
2022-10-29T23:08:40.040Z,14.80
2022-10-29T23:11:08.012Z,15.00
2022-10-29T23:13:35.111Z,15.20
2022-10-29T23:16:02.157Z,15.40
2022-10-29T23:18:29.165Z,15.70
2022-10-29T23:21:04.987Z,15.90
2022-10-29T23:23:32.921Z,16.10
2022-10-29T23:26:04.221Z,16.20
2022-10-29T23:28:33.211Z,16.20
2022-10-29T23:31:01.789Z,16.30
2022-10-29T23:33:29.757Z,16.20
2022-10-29T23:36:01.035Z,16.20
2022-10-29T23:38:27.916Z,16.30
2022-10-29T23:40:55.413Z,16.40
2022-10-29T23:43:22.288Z,16.40
2022-10-29T23:45:49.360Z,16.40
2022-10-29T23:48:16.281Z,16.40
2022-10-29T23:50:43.214Z,16.30
2022-10-29T23:53:10.431Z,16.30
2022-10-29T23:55:37.460Z,16.40
2022-10-29T23:58:05.360Z,16.40
